Aviation Digital Data Service (ADDS)

Output produced by METARs form (1705 UTC 24 April 2017)
found at http://www.aviationweather.gov/adds/metars/
 
FYWE 241500Z 04007KT 9999 -RA FEW040CB SCT045TCU 19/08 Q1023
TAF FYWE 241700Z 2418/2503 04007KT 9999 -RA FEW040CB SCT045TCU 
     TEMPO 2419/2502 -SHRA FEW030CB 
       
TAF FYGF 241700Z 2418/2503 16003KT 9999 SCT030 
     BECMG 2420/2422 NSC 
     BECMG 2500/2502 10004KT CAVOK 
       
FYWH 241600Z 00000KT 9999 FEW040CB 19/08 Q1024 NOSIG
TAF FYWH 241600Z 2418/2524 34004KT 9999 SCT045TCU 
     TEMPO 2420/2501 08004KT -SHRA FEW040CB 
     BECMG 2503/2505 NSW NSC 
     BECMG 2509/2511 SCT050 
     BECMG 2513/2515 35005KT BKN045 
     BECMG 2520/2522 07003KT NSC 
       
FYKM 241500Z 08003KT 9999 FEW025TCU 24/18 Q1019
FYKT 241600Z 05010KT 9999 FEW040 25/08 Q1020
TAF FYKT 241600Z 2418/2524 07012KT 9999 SCT040 
     BECMG 2420/2422 NSC 
     BECMG 2509/2511 SCT050 
     BECMG 2514/2516 BKN045 
     BECMG 2522/2524 NSC 
       
FYLZ 241600Z AUTO 33004KT //// // ////// 27/13 Q1013
TAF FYLZ 241700Z 2418/2503 31006KT CAVOK
       
FYOA 241300Z 10004KT CAVOK 28/09 Q1018
TAF FYOA 241700Z 2418/2503 10004KT CAVOK
       
TAF FYOG 241700Z 2418/2503 10003KT CAVOK 
     BECMG 2420/2422 9999 BKN015 
     TEMPO 2500/2502 0900 FG OVC012 
       
FYRU 241600Z AUTO 14005KT //// // ////// 20/13 Q1022
TAF FYRU 241700Z 2418/2503 18010KT 9999 SCT020 
     BECMG 2418/2420 NSC 
       
FYWB 241600Z 24008KT CAVOK 27/13 Q1013
TAF FYWB 241600Z 2418/2524 25009KT CAVOK 
     BECMG 2419/2421 04006KT 9999 BKN012 
     PROB30 
     TEMPO 2423/2503 0800 FG OVC007 
     BECMG 2507/2509 9999 BKN015 
     BECMG 2512/2514 27009KT CAVOK 
     BECMG 2519/2521 9999 BKN013 
     TEMPO 2522/2524 06003KT 0800 FG OVC009